Aviation Digital Data Service (ADDS)

Output produced by METARs form (2038 UTC 27 September 2016)
found at http://aviationweather.gov/adds/metars/
 
METAR text: KBFM 272021Z 17006KT 10SM VCTS -RA BKN025 BKN035 26/24 A2991 RMK AO2 LTG DSNT E-SW P0005 T02610244
Conditions at: KBFM (MOBILE/BROOKLEY , AL, US) observed 2021 UTC 27 September 2016
Temperature: 26.1°C (79°F)
Dewpoint: 24.4°C (76°F) [RH = 90%]
Pressure (altimeter): 29.91 inches Hg (1013.0 mb)
Winds: from the S (170 degrees) at 7 MPH (6 knots; 3.1 m/s)
Visibility: 10 or more miles (16+ km)
Ceiling: 2500 feet AGL
Clouds: broken clouds at 2500 feet AGL
broken clouds at 3500 feet AGL
Weather: VCTS -RA  (thunderstorm in vicinity, light rain)